Time,TemperatureF,DewpointF,PressureIn,WindDirection,WindDirectionDegrees,WindSpeedMPH,WindSpeedGustMPH,Humidity,HourlyPrecipIn,Conditions,Clouds,dailyrainin,SoftwareType,DateUTC
2013-07-18 00:02:00,71.9,51.7,30.14,NNE,31,3.5,3.5,49,0.00,-RA,OVC,0.00,WeatherDisplay:10.37,2013-07-18 06:02:00,
2013-07-18 00:07:00,72.0,51.8,30.14,NNE,31,2.3,2.3,49,0.00,-RA,OVC,0.00,WeatherDisplay:10.37,2013-07-18 06:07:00,
2013-07-18 00:12:00,72.1,51.3,30.14,NNE,31,2.3,2.3,48,0.00,-RA,OVC,0.00,WeatherDisplay:10.37,2013-07-18 06:12:00,
2013-07-18 00:17:00,72.1,51.9,30.14,NNE,31,2.3,0.0,49,0.00,-RA,OVC,0.00,WeatherDisplay:10.37,2013-07-18 06:17:00,
2013-07-18 00:22:00,71.9,52.2,30.14,NNE,31,0.0,0.0,50,0.00,-RA,OVC,0.00,WeatherDisplay:10.37,2013-07-18 06:22:00,
2013-07-18 00:27:00,71.6,52.5,30.14,NNE,31,0.0,0.0,51,0.00,-RA,OVC,0.00,WeatherDisplay:10.37,2013-07-18 06:27:00,
2013-07-18 00:32:00,71.2,52.1,30.14,NNE,31,1.1,0.0,51,0.00,-RA,OVC,0.00,WeatherDisplay:10.37,2013-07-18 06:32:00,
2013-07-18 00:37:00,70.9,52.4,30.14,NNE,31,0.0,0.0,52,0.00,-RA,OVC,0.00,WeatherDisplay:10.37,2013-07-18 06:37:00,
2013-07-18 00:42:00,70.6,53.1,30.14,NNE,31,0.0,0.0,54,0.00,-RA,OVC,0.00,WeatherDisplay:10.37,2013-07-18 06:42:00,
2013-07-18 00:47:00,70.2,52.3,30.14,NNE,31,3.5,3.5,53,0.00,-RA,OVC,0.00,WeatherDisplay:10.37,2013-07-18 06:47:00,
2013-07-18 00:52:00,70.0,52.6,30.14,NNE,31,2.3,0.0,54,0.00,-RA,OVC,0.00,WeatherDisplay:10.37,2013-07-18 06:52:00,
2013-07-18 00:57:00,69.8,53.4,30.14,NNE,31,2.3,2.3,56,0.00,-RA,OVC,0.00,WeatherDisplay:10.37,2013-07-18 06:57:00,
2013-07-18 01:02:00,69.5,53.1,30.14,NNE,31,1.1,1.1,56,0.00,-RA,OVC,0.00,WeatherDisplay:10.37,2013-07-18 07:02:00,
2013-07-18 01:07:00,69.3,52.9,30.14,NNE,31,1.1,1.1,56,0.00,-RA,OVC,0.00,WeatherDisplay:10.37,2013-07-18 07:07:00,
2013-07-18 01:12:00,69.1,52.7,30.14,NNE,31,3.0,3.0,56,0.00,-RA,OVC,0.00,WeatherDisplay:10.37,2013-07-18 07:12:00,
2013-07-18 01:17:00,68.9,53.0,30.14,NNE,31,3.5,3.5,57,0.00,-RA,OVC,0.00,WeatherDisplay:10.37,2013-07-18 07:17:00,
2013-07-18 01:22:00,68.9,53.0,30.14,NNE,32,3.5,3.5,57,0.00,-RA,OVC,0.00,WeatherDisplay:10.37,2013-07-18 07:22:00,
2013-07-18 01:27:00,68.9,53.0,30.14,NNE,32,0.0,0.0,57,0.00,-RA,OVC,0.00,WeatherDisplay:10.37,2013-07-18 07:27:00,
2013-07-18 01:32:00,68.8,52.9,30.14,NNE,32,0.0,0.0,57,0.00,-RA,OVC,0.00,WeatherDisplay:10.37,2013-07-18 07:32:00,
2013-07-18 01:37:00,68.6,52.8,30.14,NNE,32,0.0,0.1,57,0.00,-RA,OVC,0.00,WeatherDisplay:10.37,2013-07-18 07:37:00,
2013-07-18 01:42:00,68.5,52.7,30.14,NNE,32,0.0,0.0,57,0.00,-RA,OVC,0.00,WeatherDisplay:10.37,2013-07-18 07:42:00,
2013-07-18 01:47:00,68.3,52.5,30.14,NNE,32,2.0,2.0,57,0.00,-RA,OVC,0.00,WeatherDisplay:10.37,2013-07-18 07:47:00,
2013-07-18 01:52:00,68.3,52.5,30.14,NNE,32,0.0,0.3,57,0.00,-RA,OVC,0.00,WeatherDisplay:10.37,2013-07-18 07:52:00,
2013-07-18 01:57:00,68.3,52.5,30.14,NNE,32,3.5,3.5,57,0.00,-RA,OVC,0.00,WeatherDisplay:10.37,2013-07-18 07:57:00,
2013-07-18 02:02:00,68.2,52.4,30.14,NNE,32,0.0,0.0,57,0.00,-RA,OVC,0.00,WeatherDisplay:10.37,2013-07-18 08:02:00,
2013-07-18 02:07:00,68.1,52.3,30.14,NNE,32,1.1,0.0,57,0.00,-RA,OVC,0.00,WeatherDisplay:10.37,2013-07-18 08:07:00,
2013-07-18 02:12:00,68.0,52.7,30.14,NNE,32,0.0,0.0,58,0.00,-RA,OVC,0.00,WeatherDisplay:10.37,2013-07-18 08:12:00,
2013-07-18 02:17:00,67.7,52.9,30.14,NNE,32,2.3,0.0,59,0.00,-RA,OVC,0.00,WeatherDisplay:10.37,2013-07-18 08:17:00,
2013-07-18 02:22:00,67.5,53.1,30.14,NNE,32,0.0,0.0,60,0.00,-RA,OVC,0.00,WeatherDisplay:10.37,2013-07-18 08:22:00,
2013-07-18 02:27:00,67.3,52.9,30.14,NNE,32,0.0,0.0,60,0.00,-RA,OVC,0.00,WeatherDisplay:10.37,2013-07-18 08:27:00,
2013-07-18 02:32:00,67.0,53.1,30.14,NNE,32,0.0,0.0,61,0.00,-RA,OVC,0.00,WeatherDisplay:10.37,2013-07-18 08:32:00,
2013-07-18 02:38:00,66.7,53.3,30.14,NNE,32,1.1,0.0,62,0.00,-RA,OVC,0.00,WeatherDisplay:10.37,2013-07-18 08:38:00,
2013-07-18 02:43:00,66.4,53.4,30.14,NNE,32,1.1,1.1,63,0.00,-RA,OVC,0.00,WeatherDisplay:10.37,2013-07-18 08:43:00,
2013-07-18 02:48:00,66.1,53.6,30.14,NNE,32,0.0,0.0,64,0.00,-RA,OVC,0.00,WeatherDisplay:10.37,2013-07-18 08:48:00,
2013-07-18 02:53:00,65.9,53.8,30.14,NNE,32,0.0,0.0,65,0.00,-RA,OVC,0.00,WeatherDisplay:10.37,2013-07-18 08:53:00,
2013-07-18 02:58:00,65.6,53.9,30.14,NNE,32,0.0,0.0,66,0.00,-RA,OVC,0.00,WeatherDisplay:10.37,2013-07-18 08:58:00,
2013-07-18 03:03:00,65.4,53.7,30.14,NNE,32,0.0,0.0,66,0.00,-RA,OVC,0.00,WeatherDisplay:10.37,2013-07-18 09:03:00,
2013-07-18 03:08:00,65.1,53.9,30.14,NNE,32,0.0,0.0,67,0.00,-RA,OVC,0.00,WeatherDisplay:10.37,2013-07-18 09:08:00,
2013-07-18 03:13:00,64.9,54.1,30.14,NNE,32,0.0,0.0,68,0.00,-RA,OVC,0.00,WeatherDisplay:10.37,2013-07-18 09:13:00,
2013-07-18 03:18:00,64.7,53.9,30.14,NNE,32,0.0,0.0,68,0.00,-RA,OVC,0.00,WeatherDisplay:10.37,2013-07-18 09:18:00,
2013-07-18 03:23:00,64.5,54.1,30.14,NNE,32,0.0,0.0,69,0.00,-RA,OVC,0.00,WeatherDisplay:10.37,2013-07-18 09:23:00,
2013-07-18 03:28:00,64.2,53.8,30.14,NNE,32,0.0,0.0,69,0.00,-RA,OVC,0.00,WeatherDisplay:10.37,2013-07-18 09:28:00,
2013-07-18 03:33:00,63.9,53.9,30.14,NNE,32,0.0,0.0,70,0.00,-RA,OVC,0.00,WeatherDisplay:10.37,2013-07-18 09:33:00,
2013-07-18 03:38:00,63.6,54.0,30.14,NNE,32,0.0,0.0,71,0.00,-RA,OVC,0.00,WeatherDisplay:10.37,2013-07-18 09:38:00,
2013-07-18 03:43:00,63.4,53.0,30.14,NNE,32,1.1,1.1,69,0.00,-RA,OVC,0.00,WeatherDisplay:10.37,2013-07-18 09:43:00,
2013-07-18 03:48:00,63.6,52.8,30.14,NNE,32,0.0,0.0,68,0.00,-RA,OVC,0.00,WeatherDisplay:10.37,2013-07-18 09:48:00,
2013-07-18 03:53:00,63.8,52.6,30.14,NNE,32,0.0,0.0,67,0.00,-RA,OVC,0.00,WeatherDisplay:10.37,2013-07-18 09:53:00,
2013-07-18 03:58:00,64.0,53.2,30.14,NNE,32,1.1,0.0,68,0.00,-RA,OVC,0.00,WeatherDisplay:10.37,2013-07-18 09:58:00,
2013-07-18 04:03:00,64.4,52.4,30.14,NNE,32,1.1,1.1,65,0.00,-RA,OVC,0.00,WeatherDisplay:10.37,2013-07-18 10:03:00,
2013-07-18 04:08:00,64.9,52.8,30.14,NNE,32,1.1,0.0,65,0.00,-RA,OVC,0.00,WeatherDisplay:10.37,2013-07-18 10:08:00,
2013-07-18 04:13:00,65.2,52.7,30.14,NNE,32,0.0,0.0,64,0.00,-RA,OVC,0.00,WeatherDisplay:10.37,2013-07-18 10:13:00,
2013-07-18 04:18:00,65.3,53.2,30.14,NNE,32,0.0,0.0,65,0.00,-RA,OVC,0.00,WeatherDisplay:10.37,2013-07-18 10:18:00,
2013-07-18 04:23:00,65.2,53.6,30.14,NNE,32,0.0,0.0,66,0.00,-RA,OVC,0.00,WeatherDisplay:10.37,2013-07-18 10:23:00,
2013-07-18 04:28:00,64.9,53.7,30.14,NNE,32,0.0,0.0,67,0.00,-RA,OVC,0.00,WeatherDisplay:10.37,2013-07-18 10:28:00,
2013-07-18 04:33:00,64.7,53.1,30.14,NNE,32,0.0,0.0,66,0.00,-RA,OVC,0.00,WeatherDisplay:10.37,2013-07-18 10:33:00,
2013-07-18 04:38:00,64.5,53.3,30.14,NNE,32,0.0,0.0,67,0.00,-RA,OVC,0.00,WeatherDisplay:10.37,2013-07-18 10:38:00,
2013-07-18 04:43:00,64.3,53.9,30.14,NNE,32,0.0,0.0,69,0.00,-RA,OVC,0.00,WeatherDisplay:10.37,2013-07-18 10:43:00,
2013-07-18 04:48:00,64.0,53.6,30.14,NNE,32,0.0,0.0,69,0.00,-RA,OVC,0.00,WeatherDisplay:10.37,2013-07-18 10:48:00,
2013-07-18 04:53:00,63.8,53.4,30.14,NNE,32,0.0,0.0,69,0.00,-RA,OVC,0.00,WeatherDisplay:10.37,2013-07-18 10:53:00,
2013-07-18 04:58:00,63.6,53.6,30.14,NNE,32,0.0,0.0,70,0.00,-RA,OVC,0.00,WeatherDisplay:10.37,2013-07-18 10:58:00,
2013-07-18 05:03:00,63.4,53.8,30.14,NNE,32,0.0,0.0,71,0.00,-RA,OVC,0.00,WeatherDisplay:10.37,2013-07-18 11:03:00,
2013-07-18 05:08:00,63.1,53.9,30.14,NNE,32,0.0,0.0,72,0.00,-RA,OVC,0.00,WeatherDisplay:10.37,2013-07-18 11:08:00,
2013-07-18 05:13:00,62.9,54.1,30.14,NNE,32,0.0,0.0,73,0.00,-RA,OVC,0.00,WeatherDisplay:10.37,2013-07-18 11:13:00,
2013-07-18 05:18:00,62.7,53.9,30.14,NNE,32,0.0,0.0,73,0.00,-RA,OVC,0.00,WeatherDisplay:10.37,2013-07-18 11:18:00,
2013-07-18 05:23:00,62.5,54.1,30.14,NNE,32,0.0,0.0,74,0.00,-RA,OVC,0.00,WeatherDisplay:10.37,2013-07-18 11:23:00,
2013-07-18 05:28:00,62.3,53.9,30.14,NNE,32,0.0,0.0,74,0.00,-RA,OVC,0.00,WeatherDisplay:10.37,2013-07-18 11:28:00,
2013-07-18 05:33:00,62.2,54.2,30.14,NNE,32,0.0,0.0,75,0.00,-RA,OVC,0.00,WeatherDisplay:10.37,2013-07-18 11:33:00,
2013-07-18 05:38:00,62.1,54.1,30.14,NNE,32,0.0,0.0,75,0.00,-RA,OVC,0.00,WeatherDisplay:10.37,2013-07-18 11:38:00,
2013-07-18 05:43:00,62.0,54.0,30.14,NNE,32,0.0,0.0,75,0.00,-RA,OVC,0.00,WeatherDisplay:10.37,2013-07-18 11:43:00,
2013-07-18 05:48:00,61.9,53.9,30.14,NNE,32,0.0,0.0,75,0.00,-RA,OVC,0.00,WeatherDisplay:10.37,2013-07-18 11:48:00,
2013-07-18 05:53:00,61.8,53.8,30.14,NNE,32,1.1,0.0,75,0.00,-RA,OVC,0.00,WeatherDisplay:10.37,2013-07-18 11:53:00,
2013-07-18 05:58:00,61.8,53.8,30.14,NNE,32,0.0,0.0,75,0.00,-RA,OVC,0.00,WeatherDisplay:10.37,2013-07-18 11:58:00,
2013-07-18 06:03:00,61.9,53.9,30.14,NNE,32,0.0,0.0,75,0.00,-RA,OVC,0.00,WeatherDisplay:10.37,2013-07-18 12:03:00,
2013-07-18 06:08:00,62.0,54.0,30.14,NNE,32,0.0,0.0,75,0.00,-RA,OVC,0.00,WeatherDisplay:10.37,2013-07-18 12:08:00,
2013-07-18 06:13:00,62.1,54.4,30.14,NNE,32,0.0,0.0,76,0.00,-RA,OVC,0.00,WeatherDisplay:10.37,2013-07-18 12:13:00,
2013-07-18 06:18:00,62.1,54.8,30.14,NNE,32,0.0,0.0,77,0.00,-RA,OVC,0.00,WeatherDisplay:10.37,2013-07-18 12:18:00,
2013-07-18 06:23:00,62.0,54.7,30.14,NNE,32,0.0,0.0,77,0.00,-RA,OVC,0.00,WeatherDisplay:10.37,2013-07-18 12:23:00,
2013-07-18 06:28:00,62.1,54.4,30.14,NNE,32,0.0,0.0,76,0.00,-RA,OVC,0.00,WeatherDisplay:10.37,2013-07-18 12:28:00,
2013-07-18 06:33:00,62.1,54.4,30.14,NNE,32,0.0,0.0,76,0.00,-RA,OVC,0.00,WeatherDisplay:10.37,2013-07-18 12:33:00,
2013-07-18 06:38:00,62.3,54.6,30.14,NNE,32,0.0,0.0,76,0.00,-RA,OVC,0.00,WeatherDisplay:10.37,2013-07-18 12:38:00,
2013-07-18 06:43:00,62.4,54.7,30.14,NNE,32,0.0,0.0,76,0.00,-RA,OVC,0.00,WeatherDisplay:10.37,2013-07-18 12:43:00,
2013-07-18 06:48:00,62.7,55.0,30.14,NNE,32,0.0,0.0,76,0.00,-RA,OVC,0.00,WeatherDisplay:10.37,2013-07-18 12:48:00,
2013-07-18 06:53:00,63.1,55.4,30.14,NNE,32,0.0,0.0,76,0.00,-RA,OVC,0.00,WeatherDisplay:10.37,2013-07-18 12:53:00,
2013-07-18 06:58:00,63.6,55.9,30.14,NNE,32,0.0,0.0,76,0.00,-RA,OVC,0.00,WeatherDisplay:10.37,2013-07-18 12:58:00,
2013-07-18 07:03:00,64.2,56.5,30.14,NNE,32,0.0,0.0,76,0.00,-RA,OVC,0.00,WeatherDisplay:10.37,2013-07-18 13:03:00,
2013-07-18 07:08:00,64.9,57.2,30.14,NNE,32,0.0,0.0,76,0.00,-RA,OVC,0.00,WeatherDisplay:10.37,2013-07-18 13:08:00,
2013-07-18 07:13:00,65.7,56.8,30.14,NNE,32,0.0,0.0,73,0.00,-RA,OVC,0.00,WeatherDisplay:10.37,2013-07-18 13:13:00,
2013-07-18 07:18:00,66.7,57.0,30.14,NNE,32,0.0,0.0,71,0.00,-RA,OVC,0.00,WeatherDisplay:10.37,2013-07-18 13:18:00,
2013-07-18 07:23:00,68.0,57.8,30.17,NNE,32,0.0,0.0,70,0.00,-RA,OVC,0.00,WeatherDisplay:10.37,2013-07-18 13:23:00,
2013-07-18 07:28:00,69.4,57.1,30.17,NNE,32,1.1,1.1,65,0.00,-RA,OVC,0.00,WeatherDisplay:10.37,2013-07-18 13:28:00,
2013-07-18 07:33:00,70.6,56.9,30.17,NNE,32,0.0,0.0,62,0.00,-RA,OVC,0.00,WeatherDisplay:10.37,2013-07-18 13:33:00,
2013-07-18 07:38:00,71.6,56.0,30.17,NNE,32,0.0,0.0,58,0.00,-RA,OVC,0.00,WeatherDisplay:10.37,2013-07-18 13:38:00,
2013-07-18 07:43:00,72.5,56.4,30.17,NNE,32,1.1,1.1,57,0.00,-RA,OVC,0.00,WeatherDisplay:10.37,2013-07-18 13:43:00,
2013-07-18 07:48:00,73.3,56.2,30.17,NNE,32,1.1,0.0,55,0.00,-RA,OVC,0.00,WeatherDisplay:10.37,2013-07-18 13:48:00,
2013-07-18 07:53:00,73.8,54.5,30.17,NNE,32,1.1,0.0,51,0.00,-RA,OVC,0.00,WeatherDisplay:10.37,2013-07-18 13:53:00,
2013-07-18 07:58:00,73.8,55.6,30.17,NNE,32,0.0,0.0,53,0.00,-RA,OVC,0.00,WeatherDisplay:10.37,2013-07-18 13:58:00,
2013-07-18 08:03:00,73.8,56.6,30.17,NNE,32,0.0,0.0,55,0.00,-RA,OVC,0.00,WeatherDisplay:10.37,2013-07-18 14:03:00,
2013-07-18 08:08:00,73.8,55.6,30.17,NNE,32,0.0,0.0,53,0.00,-RA,OVC,0.00,WeatherDisplay:10.37,2013-07-18 14:08:00,
2013-07-18 08:13:00,74.2,54.9,30.17,NNE,32,1.1,0.0,51,0.00,-RA,OVC,0.00,WeatherDisplay:10.37,2013-07-18 14:13:00,
2013-07-18 08:18:00,74.4,55.6,30.17,NNE,32,0.0,0.1,52,0.00,-RA,OVC,0.00,WeatherDisplay:10.37,2013-07-18 14:18:00,
2013-07-18 08:23:00,74.6,54.7,30.17,NNE,32,0.0,0.0,50,0.00,-RA,OVC,0.00,WeatherDisplay:10.37,2013-07-18 14:23:00,
2013-07-18 08:28:00,74.9,55.0,30.17,NNE,32,1.1,0.0,50,0.00,-RA,OVC,0.00,WeatherDisplay:10.37,2013-07-18 14:28:00,
2013-07-18 08:33:00,75.3,55.9,30.17,NNE,32,1.1,0.0,51,0.00,-RA,OVC,0.00,WeatherDisplay:10.37,2013-07-18 14:33:00,
2013-07-18 08:38:00,75.9,55.9,30.17,NNE,32,1.1,1.1,50,0.00,-RA,OVC,0.00,WeatherDisplay:10.37,2013-07-18 14:38:00,
2013-07-18 08:43:00,76.5,55.3,30.17,NNE,32,1.1,0.0,48,0.00,-RA,OVC,0.00,WeatherDisplay:10.37,2013-07-18 14:43:00,
2013-07-18 08:48:00,77.4,56.7,30.17,NNE,32,1.1,0.0,49,0.00,-RA,OVC,0.00,WeatherDisplay:10.37,2013-07-18 14:48:00,
2013-07-18 08:53:00,78.0,55.5,30.17,NNE,32,0.0,0.0,46,0.00,-RA,OVC,0.00,WeatherDisplay:10.37,2013-07-18 14:53:00,
2013-07-18 08:58:00,78.6,56.7,30.17,NNE,32,0.0,0.0,47,0.00,-RA,OVC,0.00,WeatherDisplay:10.37,2013-07-18 14:58:00,
2013-07-18 09:03:00,78.8,56.3,30.17,NNE,32,0.0,0.0,46,0.00,-RA,OVC,0.00,WeatherDisplay:10.37,2013-07-18 15:03:00,
2013-07-18 09:08:00,78.9,57.0,30.17,NNE,32,0.0,0.0,47,0.00,-RA,OVC,0.00,WeatherDisplay:10.37,2013-07-18 15:08:00,
2013-07-18 09:13:00,79.1,57.1,30.17,NNE,32,2.3,2.3,47,0.00,-RA,OVC,0.00,WeatherDisplay:10.37,2013-07-18 15:13:00,
2013-07-18 09:18:00,79.1,57.7,30.17,NNE,32,1.1,1.1,48,0.00,-RA,OVC,0.00,WeatherDisplay:10.37,2013-07-18 15:18:00,
2013-07-18 09:23:00,79.3,57.9,30.17,NNE,32,0.0,0.0,48,0.00,-RA,OVC,0.00,WeatherDisplay:10.37,2013-07-18 15:23:00,
2013-07-18 09:28:00,79.7,57.7,30.17,NNE,32,1.1,1.1,47,0.00,-RA,OVC,0.00,WeatherDisplay:10.37,2013-07-18 15:28:00,
2013-07-18 09:33:00,80.1,57.5,30.17,NNE,32,1.1,1.1,46,0.00,-RA,OVC,0.00,WeatherDisplay:10.37,2013-07-18 15:33:00,
2013-07-18 09:38:00,80.7,56.8,30.17,NNE,32,1.1,1.1,44,0.00,-RA,OVC,0.00,WeatherDisplay:10.37,2013-07-18 15:38:00,
2013-07-18 09:43:00,81.2,55.3,30.17,NNE,32,1.1,0.0,41,0.00,-RA,OVC,0.00,WeatherDisplay:10.37,2013-07-18 15:43:00,
2013-07-18 09:48:00,81.4,54.8,30.17,NNE,32,1.1,1.1,40,0.00,-RA,OVC,0.00,WeatherDisplay:10.37,2013-07-18 15:48:00,
2013-07-18 09:53:00,81.4,55.4,30.17,NNE,32,1.1,0.0,41,0.00,-RA,OVC,0.00,WeatherDisplay:10.37,2013-07-18 15:53:00,
2013-07-18 09:58:00,81.7,53.6,30.17,NNE,32,3.5,3.5,38,0.00,-RA,OVC,0.00,WeatherDisplay:10.37,2013-07-18 15:58:00,
2013-07-18 10:03:00,81.5,54.8,30.17,NNE,32,1.1,1.1,40,0.00,-RA,OVC,0.00,WeatherDisplay:10.37,2013-07-18 16:03:00,
2013-07-18 10:08:00,81.9,55.9,30.17,NNE,32,0.0,0.0,41,0.00,-RA,OVC,0.00,WeatherDisplay:10.37,2013-07-18 16:08:00,
2013-07-18 10:13:00,82.7,55.2,30.17,NNE,32,1.1,0.0,39,0.00,-RA,OVC,0.00,WeatherDisplay:10.37,2013-07-18 16:13:00,
2013-07-18 10:18:00,83.5,55.2,30.17,NNE,32,0.0,0.0,38,0.00,-RA,OVC,0.00,WeatherDisplay:10.37,2013-07-18 16:18:00,
2013-07-18 10:23:00,83.7,53.9,30.17,NNE,15,3.5,3.5,36,0.00,-RA,OVC,0.00,WeatherDisplay:10.37,2013-07-18 16:23:00,
2013-07-18 10:28:00,83.6,54.6,30.17,North,9,3.5,3.5,37,0.00,-RA,OVC,0.00,WeatherDisplay:10.37,2013-07-18 16:28:00,
2013-07-18 10:33:00,84.0,54.9,30.17,North,5,0.0,0.0,37,0.00,-RA,OVC,0.00,WeatherDisplay:10.37,2013-07-18 16:33:00,
2013-07-18 10:38:00,84.2,55.1,30.17,North,5,1.1,0.0,37,0.00,-RA,OVC,0.00,WeatherDisplay:10.37,2013-07-18 16:38:00,
2013-07-18 10:43:00,84.2,56.6,30.17,North,360,3.5,3.5,39,0.00,-RA,OVC,0.00,WeatherDisplay:10.37,2013-07-18 16:43:00,
2013-07-18 10:48:00,84.3,55.9,30.17,North,360,3.5,3.5,38,0.00,-RA,OVC,0.00,WeatherDisplay:10.37,2013-07-18 16:48:00,
2013-07-18 10:53:00,84.2,55.8,30.17,North,355,2.3,2.3,38,0.00,-RA,OVC,0.00,WeatherDisplay:10.37,2013-07-18 16:53:00,
2013-07-18 10:58:00,84.3,56.6,30.17,North,360,3.5,3.5,39,0.00,-RA,OVC,0.00,WeatherDisplay:10.37,2013-07-18 16:58:00,
2013-07-18 11:03:00,84.3,55.2,30.17,North,355,3.5,3.5,37,0.00,-RA,OVC,0.00,WeatherDisplay:10.37,2013-07-18 17:03:00,
2013-07-18 11:08:00,84.6,56.2,30.17,North,355,2.3,2.3,38,0.00,-RA,OVC,0.00,WeatherDisplay:10.37,2013-07-18 17:08:00,
2013-07-18 11:13:00,84.8,56.4,30.17,North,355,1.1,1.1,38,0.00,-RA,OVC,0.00,WeatherDisplay:10.37,2013-07-18 17:13:00,
2013-07-18 11:18:00,85.1,55.9,30.17,NNW,340,3.5,3.5,37,0.00,-RA,OVC,0.00,WeatherDisplay:10.37,2013-07-18 17:18:00,
2013-07-18 11:23:00,85.2,56.0,30.17,NNW,327,3.5,3.5,37,0.00,-RA,OVC,0.00,WeatherDisplay:10.37,2013-07-18 17:23:00,
2013-07-18 11:28:00,85.8,56.5,30.17,NW,321,3.5,3.5,37,0.00,-RA,OVC,0.00,WeatherDisplay:10.37,2013-07-18 17:28:00,
2013-07-18 11:33:00,86.1,56.0,30.17,SW,218,3.5,3.5,36,0.00,-RA,OVC,0.00,WeatherDisplay:10.37,2013-07-18 17:33:00,
2013-07-18 11:38:00,86.6,57.2,30.17,SW,214,5.8,5.8,37,0.00,-RA,OVC,0.00,WeatherDisplay:10.37,2013-07-18 17:38:00,
2013-07-18 11:43:00,86.8,56.6,30.17,SW,233,2.3,2.3,36,0.00,-RA,OVC,0.00,WeatherDisplay:10.37,2013-07-18 17:43:00,
2013-07-18 11:48:00,86.5,55.6,30.17,ESE,115,5.8,5.8,35,0.00,-RA,OVC,0.00,WeatherDisplay:10.37,2013-07-18 17:48:00,
2013-07-18 11:53:00,86.0,56.7,30.17,SSW,192,1.0,0.0,37,0.00,-RA,OVC,0.00,WeatherDisplay:10.37,2013-07-18 17:53:00,
2013-07-18 11:58:00,86.4,56.3,30.17,SSW,202,5.8,5.8,36,0.00,-RA,OVC,0.00,WeatherDisplay:10.37,2013-07-18 17:58:00,
2013-07-18 12:03:00,86.8,56.6,30.16,SSW,205,3.5,3.5,36,0.00,-RA,OVC,0.00,WeatherDisplay:10.37,2013-07-18 18:03:00,
2013-07-18 12:08:00,86.9,56.0,30.16,SSW,206,3.5,3.5,35,0.00,-RA,OVC,0.00,WeatherDisplay:10.37,2013-07-18 18:08:00,
2013-07-18 12:13:00,87.2,55.4,30.16,SW,225,3.5,3.5,34,0.00,-RA,OVC,0.00,WeatherDisplay:10.37,2013-07-18 18:13:00,
2013-07-18 12:18:00,87.7,57.4,30.16,SE,140,3.5,3.5,36,0.00,-RA,OVC,0.00,WeatherDisplay:10.37,2013-07-18 18:18:00,
2013-07-18 12:23:00,88.0,57.7,30.16,SSE,155,3.5,3.5,36,0.00,-RA,OVC,0.00,WeatherDisplay:10.37,2013-07-18 18:23:00,
2013-07-18 12:28:00,88.1,57.0,30.16,South,182,3.5,3.5,35,0.00,-RA,OVC,0.00,WeatherDisplay:10.37,2013-07-18 18:28:00,
2013-07-18 12:33:00,88.4,55.6,30.16,SSW,199,2.3,2.3,33,0.00,-RA,OVC,0.00,WeatherDisplay:10.37,2013-07-18 18:33:00,
2013-07-18 12:38:00,88.8,56.0,30.16,SSW,202,3.5,3.5,33,0.00,-RA,OVC,0.00,WeatherDisplay:10.37,2013-07-18 18:38:00,
2013-07-18 12:43:00,89.2,58.0,30.16,SSW,198,3.5,3.5,35,0.00,-RA,OVC,0.00,WeatherDisplay:10.37,2013-07-18 18:43:00,
2013-07-18 12:48:00,89.0,56.2,30.16,SSW,200,3.5,3.5,33,0.00,-RA,OVC,0.00,WeatherDisplay:10.37,2013-07-18 18:48:00,
2013-07-18 12:53:00,89.0,56.2,30.16,SSW,202,3.5,3.5,33,0.00,-RA,OVC,0.00,WeatherDisplay:10.37,2013-07-18 18:53:00,
2013-07-18 12:58:00,89.2,56.3,30.16,SSW,204,3.5,3.5,33,0.00,-RA,OVC,0.00,WeatherDisplay:10.37,2013-07-18 18:58:00,
2013-07-18 13:03:00,89.5,58.2,30.14,SW,217,1.1,1.1,35,0.00,-RA,OVC,0.00,WeatherDisplay:10.37,2013-07-18 19:03:00,
2013-07-18 13:08:00,89.9,57.8,30.14,SSW,213,2.3,2.3,34,0.00,-RA,OVC,0.00,WeatherDisplay:10.37,2013-07-18 19:08:00,
2013-07-18 13:13:00,90.6,56.7,30.14,WNW,285,3.5,3.5,32,0.00,-RA,OVC,0.00,WeatherDisplay:10.37,2013-07-18 19:13:00,
2013-07-18 13:18:00,90.9,56.1,30.14,South,178,2.3,2.3,31,0.00,-RA,OVC,0.00,WeatherDisplay:10.37,2013-07-18 19:18:00,
2013-07-18 13:23:00,90.6,54.9,30.14,SE,134,3.5,3.5,30,0.00,-RA,OVC,0.00,WeatherDisplay:10.37,2013-07-18 19:23:00,
2013-07-18 13:28:00,90.3,57.3,30.14,ESE,117,0.0,0.0,33,0.00,-RA,OVC,0.00,WeatherDisplay:10.37,2013-07-18 19:28:00,
2013-07-18 13:33:00,90.8,56.0,30.14,SE,140,2.3,2.3,31,0.00,-RA,OVC,0.00,WeatherDisplay:10.37,2013-07-18 19:33:00,
2013-07-18 13:38:00,91.0,56.2,30.14,South,170,3.5,3.5,31,0.00,-RA,OVC,0.00,WeatherDisplay:10.37,2013-07-18 19:38:00,
2013-07-18 13:43:00,90.9,55.2,30.14,SSW,203,2.3,2.3,30,0.00,-RA,OVC,0.00,WeatherDisplay:10.37,2013-07-18 19:43:00,
2013-07-18 13:48:00,91.0,55.3,30.14,SSW,200,4.6,4.6,30,0.00,-RA,OVC,0.00,WeatherDisplay:10.37,2013-07-18 19:48:00,
2013-07-18 13:53:00,91.3,58.2,30.14,SW,234,3.5,3.5,33,0.00,-RA,OVC,0.00,WeatherDisplay:10.37,2013-07-18 19:53:00,
2013-07-18 13:58:00,91.7,55.9,30.14,SW,223,3.5,3.5,30,0.00,-RA,OVC,0.00,WeatherDisplay:10.37,2013-07-18 19:58:00,
2013-07-18 14:03:00,91.5,56.6,30.14,SSW,198,6.9,6.9,31,0.00,-RA,OVC,0.00,WeatherDisplay:10.37,2013-07-18 20:03:00,
2013-07-18 14:08:00,91.0,55.3,30.14,SSW,201,3.5,3.5,30,0.00,-RA,OVC,0.00,WeatherDisplay:10.37,2013-07-18 20:08:00,
2013-07-18 14:13:00,90.8,55.1,30.14,South,169,1.1,1.1,30,0.00,-RA,OVC,0.00,WeatherDisplay:10.37,2013-07-18 20:13:00,
2013-07-18 14:18:00,91.3,54.6,30.14,West,269,4.6,4.6,29,0.00,-RA,OVC,0.00,WeatherDisplay:10.37,2013-07-18 20:18:00,
2013-07-18 14:23:00,92.0,54.2,30.13,West,279,4.6,4.6,28,0.00,-RA,OVC,0.00,WeatherDisplay:10.37,2013-07-18 20:23:00,
2013-07-18 14:28:00,92.4,55.5,30.13,West,265,2.3,2.3,29,0.00,-RA,OVC,0.00,WeatherDisplay:10.37,2013-07-18 20:28:00,
2013-07-18 14:33:00,92.4,55.5,30.13,SE,133,9.2,9.2,29,0.00,-RA,OVC,0.00,WeatherDisplay:10.37,2013-07-18 20:33:00,
2013-07-18 14:38:00,91.8,55.0,30.13,SE,125,2.3,2.3,29,0.00,-RA,OVC,0.00,WeatherDisplay:10.37,2013-07-18 20:38:00,
2013-07-18 14:43:00,92.1,54.3,30.12,SE,131,2.3,2.3,28,0.00,-RA,OVC,0.00,WeatherDisplay:10.37,2013-07-18 20:43:00,
2013-07-18 14:48:00,92.5,53.7,30.12,SE,138,3.5,3.5,27,0.00,-RA,OVC,0.00,WeatherDisplay:10.37,2013-07-18 20:48:00,
2013-07-18 14:53:00,92.5,54.7,30.12,South,185,1.1,1.1,28,0.00,-RA,OVC,0.00,WeatherDisplay:10.37,2013-07-18 20:53:00,
2013-07-18 14:58:00,92.5,55.6,30.12,NNW,338,1.1,1.1,29,0.00,-RA,OVC,0.00,WeatherDisplay:10.37,2013-07-18 20:58:00,
2013-07-18 15:03:00,92.7,55.8,30.12,NW,323,2.3,2.3,29,0.00,-RA,OVC,0.00,WeatherDisplay:10.37,2013-07-18 21:03:00,
2013-07-18 15:08:00,92.9,56.0,30.12,SW,229,3.5,3.5,29,0.00,-RA,OVC,0.00,WeatherDisplay:10.37,2013-07-18 21:08:00,
2013-07-18 15:13:00,93.1,56.1,30.12,SSW,208,5.8,5.8,29,0.00,-RA,OVC,0.00,WeatherDisplay:10.37,2013-07-18 21:13:00,
2013-07-18 15:18:00,92.9,55.0,30.12,South,182,2.3,2.3,28,0.00,-RA,OVC,0.00,WeatherDisplay:10.37,2013-07-18 21:18:00,
2013-07-18 15:23:00,93.3,55.3,30.12,South,182,3.5,3.5,28,0.00,-RA,OVC,0.00,WeatherDisplay:10.37,2013-07-18 21:23:00,
2013-07-18 15:28:00,93.5,55.5,30.12,South,184,3.5,3.5,28,0.00,-RA,OVC,0.00,WeatherDisplay:10.37,2013-07-18 21:28:00,
2013-07-18 15:33:00,93.6,56.6,30.12,SE,138,3.5,3.5,29,0.00,-RA,OVC,0.00,WeatherDisplay:10.37,2013-07-18 21:33:00,
2013-07-18 15:38:00,93.5,55.5,30.12,WSW,242,2.3,2.3,28,0.00,-RA,OVC,0.00,WeatherDisplay:10.37,2013-07-18 21:38:00,
2013-07-18 15:43:00,93.0,56.0,30.12,East,98,9.0,9.0,29,0.00,-RA,OVC,0.00,WeatherDisplay:10.37,2013-07-18 21:43:00,
2013-07-18 15:48:00,92.7,55.8,30.12,SSW,205,3.5,3.5,29,0.00,-RA,OVC,0.00,WeatherDisplay:10.37,2013-07-18 21:48:00,
2013-07-18 15:53:00,92.1,55.3,30.12,SW,219,5.8,5.8,29,0.00,-RA,OVC,0.00,WeatherDisplay:10.37,2013-07-18 21:53:00,
2013-07-18 15:58:00,90.0,53.5,30.12,SE,126,11.5,11.5,29,0.00,-RA,OVC,0.00,WeatherDisplay:10.37,2013-07-18 21:58:00,
2013-07-18 16:03:00,87.9,49.7,30.12,ESE,119,12.7,12.7,27,0.00,-RA,OVC,0.00,WeatherDisplay:10.37,2013-07-18 22:03:00,
2013-07-18 16:08:00,86.2,49.3,30.12,ESE,104,11.0,11.0,28,0.00,-RA,OVC,0.00,WeatherDisplay:10.37,2013-07-18 22:08:00,
2013-07-18 16:13:00,84.8,50.8,30.13,SSE,165,15.0,15.0,31,0.00,-RA,OVC,0.00,WeatherDisplay:10.37,2013-07-18 22:13:00,
2013-07-18 16:18:00,83.7,50.7,30.13,SE,142,10.4,10.4,32,0.00,-RA,OVC,0.00,WeatherDisplay:10.37,2013-07-18 22:18:00,
2013-07-18 16:23:00,82.8,50.8,30.13,ESE,107,13.8,13.8,33,0.00,-RA,OVC,0.00,WeatherDisplay:10.37,2013-07-18 22:23:00,
2013-07-18 16:28:00,82.3,49.5,30.13,ESE,123,17.3,17.3,32,0.00,-RA,OVC,0.00,WeatherDisplay:10.37,2013-07-18 22:28:00,
2013-07-18 16:33:00,82.4,51.2,30.13,SW,220,16.1,16.1,34,0.00,-RA,OVC,0.00,WeatherDisplay:10.37,2013-07-18 22:33:00,
2013-07-18 16:38:00,82.9,52.4,30.13,ESE,123,15.0,15.0,35,0.00,-RA,OVC,0.00,WeatherDisplay:10.37,2013-07-18 22:38:00,
2013-07-18 16:43:00,83.4,52.1,30.13,South,183,11.5,11.5,34,0.00,-RA,OVC,0.00,WeatherDisplay:10.37,2013-07-18 22:43:00,
2013-07-18 16:48:00,83.6,51.5,30.13,East,98,18.4,18.4,33,0.00,-RA,OVC,0.00,WeatherDisplay:10.37,2013-07-18 22:48:00,
2013-07-18 16:53:00,83.9,51.7,30.13,SE,144,13.8,13.8,33,0.00,-RA,OVC,0.00,WeatherDisplay:10.37,2013-07-18 22:53:00,
2013-07-18 16:58:00,84.1,52.7,30.13,ESE,107,11.0,11.0,34,0.00,-RA,OVC,0.00,WeatherDisplay:10.37,2013-07-18 22:58:00,
2013-07-18 17:03:00,84.3,52.1,30.13,ENE,77,13.8,13.8,33,0.00,-RA,OVC,0.00,WeatherDisplay:10.37,2013-07-18 23:03:00,
2013-07-18 17:08:00,84.1,51.9,30.13,SE,140,12.7,12.7,33,0.00,-RA,OVC,0.00,WeatherDisplay:10.37,2013-07-18 23:08:00,
2013-07-18 17:13:00,84.1,51.9,30.13,ESE,115,11.5,11.5,33,0.00,-RA,OVC,0.00,WeatherDisplay:10.37,2013-07-18 23:13:00,
2013-07-18 17:18:00,84.3,52.1,30.13,SSE,165,17.3,17.3,33,0.00,-RA,OVC,0.00,WeatherDisplay:10.37,2013-07-18 23:18:00,
2013-07-18 17:23:00,84.3,52.9,30.12,SE,126,12.7,12.7,34,0.00,-RA,OVC,0.00,WeatherDisplay:10.37,2013-07-18 23:23:00,
2013-07-18 17:28:00,84.2,51.1,30.12,SE,138,12.7,12.7,32,0.00,-RA,OVC,0.00,WeatherDisplay:10.37,2013-07-18 23:28:00,
2013-07-18 17:33:00,83.7,51.5,30.12,ESE,117,12.7,12.7,33,0.00,-RA,OVC,0.00,WeatherDisplay:10.37,2013-07-18 23:33:00,
2013-07-18 17:38:00,83.4,51.3,30.12,ESE,118,6.9,6.9,33,0.00,-RA,OVC,0.00,WeatherDisplay:10.37,2013-07-18 23:38:00,
2013-07-18 17:43:00,83.4,51.3,30.12,SE,126,11.5,11.5,33,0.00,-RA,OVC,0.00,WeatherDisplay:10.37,2013-07-18 23:43:00,
2013-07-18 17:48:00,82.9,51.6,30.12,ESE,109,5.8,5.8,34,0.00,-RA,OVC,0.00,WeatherDisplay:10.37,2013-07-18 23:48:00,
2013-07-18 17:53:00,82.8,53.1,30.12,South,171,3.5,3.5,36,0.00,-RA,OVC,0.00,WeatherDisplay:10.37,2013-07-18 23:53:00,
2013-07-18 17:58:00,83.0,53.3,30.12,SSW,209,3.5,3.5,36,0.00,-RA,OVC,0.00,WeatherDisplay:10.37,2013-07-18 23:58:00,
2013-07-18 18:03:00,83.0,51.7,30.12,SW,219,6.9,6.9,34,0.00,-RA,OVC,0.00,WeatherDisplay:10.37,2013-07-19 00:03:00,
2013-07-18 18:08:00,82.4,52.0,30.13,East,100,11.5,11.5,35,0.00,-RA,OVC,0.00,WeatherDisplay:10.37,2013-07-19 00:08:00,
2013-07-18 18:13:00,81.9,52.3,30.13,South,184,9.2,9.2,36,0.00,-RA,OVC,0.00,WeatherDisplay:10.37,2013-07-19 00:13:00,
2013-07-18 18:18:00,81.5,52.7,30.13,SSW,197,4.6,4.6,37,0.00,-RA,OVC,0.00,WeatherDisplay:10.37,2013-07-19 00:18:00,
2013-07-18 18:23:00,81.3,52.5,30.13,SE,126,4.6,4.6,37,0.00,-RA,OVC,0.00,WeatherDisplay:10.37,2013-07-19 00:23:00,
2013-07-18 18:28:00,81.2,52.4,30.13,SW,223,6.9,6.9,37,0.00,-RA,OVC,0.00,WeatherDisplay:10.37,2013-07-19 00:28:00,
2013-07-18 18:33:00,81.2,52.4,30.13,SSE,157,3.5,4.2,37,0.00,-RA,OVC,0.00,WeatherDisplay:10.37,2013-07-19 00:33:00,
2013-07-18 18:38:00,80.8,51.4,30.13,ESE,118,3.5,3.5,36,0.00,-RA,OVC,0.00,WeatherDisplay:10.37,2013-07-19 00:38:00,
2013-07-18 18:43:00,80.6,51.9,30.13,SW,225,3.5,3.5,37,0.00,-RA,OVC,0.00,WeatherDisplay:10.37,2013-07-19 00:43:00,
2013-07-18 18:48:00,80.3,51.7,30.13,SE,142,3.5,3.5,37,0.00,-RA,OVC,0.00,WeatherDisplay:10.37,2013-07-19 00:48:00,
2013-07-18 18:53:00,79.9,52.0,30.13,SSE,164,3.5,3.5,38,0.00,-RA,OVC,0.00,WeatherDisplay:10.37,2013-07-19 00:53:00,
2013-07-18 18:58:00,79.4,52.3,30.13,SE,136,6.9,6.9,39,0.00,-RA,OVC,0.00,WeatherDisplay:10.37,2013-07-19 00:58:00,
2013-07-18 19:03:00,79.0,51.9,30.13,SE,135,6.9,6.9,39,0.00,-RA,OVC,0.00,WeatherDisplay:10.37,2013-07-19 01:03:00,
2013-07-18 19:08:00,78.8,52.4,30.13,SE,128,5.8,5.8,40,0.00,-RA,OVC,0.00,WeatherDisplay:10.37,2013-07-19 01:08:00,
2013-07-18 19:13:00,78.7,51.7,30.13,South,177,4.6,4.6,39,0.00,-RA,OVC,0.00,WeatherDisplay:10.37,2013-07-19 01:13:00,
2013-07-18 19:18:00,78.5,52.2,30.13,East,90,12.7,12.7,40,0.00,-RA,OVC,0.00,WeatherDisplay:10.37,2013-07-19 01:18:00,
2013-07-18 19:23:00,78.3,52.7,30.13,South,186,4.6,4.6,41,0.00,-RA,OVC,0.00,WeatherDisplay:10.37,2013-07-19 01:23:00,
2013-07-18 19:28:00,78.0,52.4,30.13,SSW,196,13.8,13.8,41,0.00,-RA,OVC,0.00,WeatherDisplay:10.37,2013-07-19 01:28:00,
2013-07-18 19:33:00,77.6,52.7,30.14,SSW,195,13.8,13.8,42,0.00,-RA,OVC,0.00,WeatherDisplay:10.37,2013-07-19 01:33:00,
2013-07-18 19:38:00,77.3,52.4,30.14,SSE,159,6.9,6.9,42,0.00,-RA,OVC,0.00,WeatherDisplay:10.37,2013-07-19 01:38:00,
2013-07-18 19:43:00,77.1,52.9,30.14,SE,127,3.5,3.5,43,0.00,-RA,OVC,0.00,WeatherDisplay:10.37,2013-07-19 01:43:00,
2013-07-18 19:48:00,76.8,52.6,30.14,South,174,11.5,11.5,43,0.00,-RA,OVC,0.00,WeatherDisplay:10.37,2013-07-19 01:48:00,
2013-07-18 19:53:00,76.6,53.1,30.14,SSW,200,2.3,0.0,44,0.00,-RA,OVC,0.00,WeatherDisplay:10.37,2013-07-19 01:53:00,
2013-07-18 19:58:00,76.4,52.9,30.14,East,88,6.9,6.9,44,0.00,-RA,OVC,0.00,WeatherDisplay:10.37,2013-07-19 01:58:00,
2013-07-18 20:03:00,76.1,53.2,30.14,SSW,205,5.8,5.8,45,0.00,-RA,OVC,0.00,WeatherDisplay:10.37,2013-07-19 02:03:00,
2013-07-18 20:08:00,75.9,53.0,30.14,SSW,195,2.0,2.0,45,0.00,-RA,OVC,0.00,WeatherDisplay:10.37,2013-07-19 02:08:00,
2013-07-18 20:13:00,75.8,52.9,30.15,SSW,202,6.9,6.9,45,0.00,-RA,OVC,0.00,WeatherDisplay:10.37,2013-07-19 02:13:00,
2013-07-18 20:18:00,75.7,53.4,30.15,SSW,202,0.0,0.0,46,0.00,-RA,OVC,0.00,WeatherDisplay:10.37,2013-07-19 02:18:00,
2013-07-18 20:23:00,75.6,53.4,30.15,SSW,202,0.0,0.2,46,0.00,-RA,OVC,0.00,WeatherDisplay:10.37,2013-07-19 02:23:00,
2013-07-18 20:28:00,75.5,53.3,30.16,SW,224,3.5,3.5,46,0.00,-RA,OVC,0.00,WeatherDisplay:10.37,2013-07-19 02:28:00,
2013-07-18 20:33:00,75.3,53.7,30.16,SW,232,0.0,0.0,47,0.00,-RA,OVC,0.00,WeatherDisplay:10.37,2013-07-19 02:33:00,
2013-07-18 20:38:00,75.2,53.6,30.16,SW,232,1.1,1.1,47,0.00,-RA,OVC,0.00,WeatherDisplay:10.37,2013-07-19 02:38:00,
2013-07-18 20:43:00,75.0,53.4,30.17,SSW,205,1.1,1.1,47,0.00,-RA,OVC,0.00,WeatherDisplay:10.37,2013-07-19 02:43:00,
2013-07-18 20:48:00,74.9,53.3,30.17,SSW,204,3.5,3.5,47,0.00,-RA,OVC,0.00,WeatherDisplay:10.37,2013-07-19 02:48:00,
2013-07-18 20:53:00,74.8,53.8,30.17,South,169,3.5,3.5,48,0.00,-RA,OVC,0.00,WeatherDisplay:10.37,2013-07-19 02:53:00,
2013-07-18 20:58:00,74.7,53.7,30.17,South,171,1.1,0.0,48,0.00,-RA,OVC,0.00,WeatherDisplay:10.37,2013-07-19 02:58:00,
2013-07-18 21:03:00,74.6,53.6,30.17,SW,226,4.6,4.6,48,0.00,-RA,OVC,0.00,WeatherDisplay:10.37,2013-07-19 03:03:00,
2013-07-18 21:08:00,74.4,53.4,30.17,SW,217,4.6,4.6,48,0.00,-RA,OVC,0.00,WeatherDisplay:10.37,2013-07-19 03:08:00,
2013-07-18 21:13:00,74.4,53.4,30.17,SE,128,3.0,3.0,48,0.00,-RA,OVC,0.00,WeatherDisplay:10.37,2013-07-19 03:13:00,
2013-07-18 21:18:00,74.4,53.4,30.17,SSE,165,5.8,5.8,48,0.00,-RA,OVC,0.00,WeatherDisplay:10.37,2013-07-19 03:18:00,
2013-07-18 21:23:00,74.4,54.0,30.17,South,184,2.3,2.3,49,0.00,-RA,OVC,0.00,WeatherDisplay:10.37,2013-07-19 03:23:00,
2013-07-18 21:28:00,74.3,53.3,30.17,South,183,3.5,3.5,48,0.00,-RA,OVC,0.00,WeatherDisplay:10.37,2013-07-19 03:28:00,
2013-07-18 21:33:00,74.2,53.8,30.17,SSE,167,2.3,2.3,49,0.00,-RA,OVC,0.00,WeatherDisplay:10.37,2013-07-19 03:33:00,
2013-07-18 21:38:00,74.2,53.8,30.17,SE,144,2.3,2.3,49,0.00,-RA,OVC,0.00,WeatherDisplay:10.37,2013-07-19 03:38:00,
2013-07-18 21:43:00,74.0,53.6,30.17,SSW,196,2.3,2.3,49,0.00,-RA,OVC,0.00,WeatherDisplay:10.37,2013-07-19 03:43:00,
2013-07-18 21:48:00,73.9,53.5,30.17,ESE,112,3.5,3.5,49,0.00,-RA,OVC,0.00,WeatherDisplay:10.37,2013-07-19 03:48:00,
2013-07-18 21:53:00,73.8,54.0,30.17,ESE,119,2.3,2.3,50,0.00,-RA,OVC,0.00,WeatherDisplay:10.37,2013-07-19 03:53:00,
2013-07-18 21:58:00,73.6,53.8,30.17,SSE,155,3.5,3.5,50,0.00,-RA,OVC,0.00,WeatherDisplay:10.37,2013-07-19 03:58:00,
2013-07-18 22:01:00,73.5,53.7,30.17,East,84,5.0,5.0,50,0.00,-RA,OVC,0.00,WeatherDisplay:10.37,2013-07-19 04:01:00,
2013-07-18 22:06:00,73.3,54.1,30.17,SW,216,5.8,5.8,51,0.00,-RA,OVC,0.00,WeatherDisplay:10.37,2013-07-19 04:06:00,
2013-07-18 22:11:00,72.9,54.2,30.17,SE,134,6.9,6.9,52,0.00,-RA,OVC,0.00,WeatherDisplay:10.37,2013-07-19 04:11:00,
2013-07-18 22:16:00,72.5,54.4,30.17,SSW,196,0.0,0.0,53,0.00,-RA,OVC,0.00,WeatherDisplay:10.37,2013-07-19 04:16:00,
2013-07-18 22:21:00,72.2,55.1,30.17,SSW,193,4.6,4.6,55,0.00,-RA,OVC,0.00,WeatherDisplay:10.37,2013-07-19 04:21:00,
2013-07-18 22:26:00,71.9,55.8,30.17,SW,221,3.5,3.5,57,0.00,-RA,OVC,0.00,WeatherDisplay:10.37,2013-07-19 04:26:00,
2013-07-18 22:31:00,71.4,55.9,30.17,SSW,198,4.0,4.0,58,0.00,-RA,OVC,0.00,WeatherDisplay:10.37,2013-07-19 04:31:00,
2013-07-18 22:36:00,71.0,55.9,30.17,SSW,202,5.8,5.8,59,0.00,-RA,OVC,0.00,WeatherDisplay:10.37,2013-07-19 04:36:00,
2013-07-18 22:41:00,70.8,56.2,30.17,SSW,202,3.5,3.5,60,0.00,-RA,OVC,0.00,WeatherDisplay:10.37,2013-07-19 04:41:00,
2013-07-18 22:46:00,70.6,56.0,30.17,SW,227,5.8,5.8,60,0.00,-RA,OVC,0.00,WeatherDisplay:10.37,2013-07-19 04:46:00,
2013-07-18 22:51:00,70.5,55.9,30.17,SW,227,2.3,0.0,60,0.00,-RA,OVC,0.00,WeatherDisplay:10.37,2013-07-19 04:51:00,
2013-07-18 22:56:00,70.4,55.8,30.17,South,191,3.5,3.5,60,0.00,-RA,OVC,0.00,WeatherDisplay:10.37,2013-07-19 04:56:00,
2013-07-18 23:01:00,70.4,55.8,30.17,ESE,105,4.6,4.6,60,0.00,-RA,OVC,0.00,WeatherDisplay:10.37,2013-07-19 05:01:00,
2013-07-18 23:06:00,70.5,55.9,30.17,ESE,106,2.3,2.3,60,0.00,-RA,OVC,0.00,WeatherDisplay:10.37,2013-07-19 05:06:00,
2013-07-18 23:11:00,70.5,55.9,30.17,ESE,109,2.3,0.0,60,0.00,-RA,OVC,0.00,WeatherDisplay:10.37,2013-07-19 05:11:00,
2013-07-18 23:16:00,70.4,55.8,30.17,ESE,109,3.5,3.5,60,0.00,-RA,OVC,0.00,WeatherDisplay:10.37,2013-07-19 05:16:00,
2013-07-18 23:21:00,70.4,55.8,30.17,ESE,109,0.0,0.0,60,0.00,-RA,OVC,0.00,WeatherDisplay:10.37,2013-07-19 05:21:00,
2013-07-18 23:26:00,70.4,55.8,30.17,ESE,110,3.5,3.5,60,0.00,-RA,OVC,0.00,WeatherDisplay:10.37,2013-07-19 05:26:00,
2013-07-18 23:31:00,70.4,55.8,30.21,ESE,109,1.1,0.0,60,0.00,-RA,OVC,0.00,WeatherDisplay:10.37,2013-07-19 05:31:00,
2013-07-18 23:36:00,70.4,55.8,30.21,ESE,107,3.5,3.5,60,0.00,-RA,OVC,0.00,WeatherDisplay:10.37,2013-07-19 05:36:00,
2013-07-18 23:41:00,70.5,55.5,30.21,ESE,107,2.3,2.3,59,0.00,-RA,OVC,0.00,WeatherDisplay:10.37,2013-07-19 05:41:00,
2013-07-18 23:46:00,70.4,55.4,30.21,ESE,107,3.5,3.5,59,0.00,-RA,OVC,0.00,WeatherDisplay:10.37,2013-07-19 05:46:00,
2013-07-18 23:51:00,70.4,55.4,30.21,ESE,108,3.5,3.5,59,0.00,-RA,OVC,0.00,WeatherDisplay:10.37,2013-07-19 05:51:00,
2013-07-18 23:56:00,70.4,55.8,30.21,ESE,118,4.6,4.6,60,0.00,-RA,OVC,0.00,WeatherDisplay:10.37,2013-07-19 05:56:00,